sensor_id;sensor_type;location;lat;lon;timestamp;pressure;altitude;pressure_sealevel;temperature;humidity
67842;BME280;54642;59.126;37.876;2022-07-05T00:01:10;99861.53;;;23.97;63.64
67842;BME280;54642;59.126;37.876;2022-07-05T00:03:36;99900.03;;;24.16;63.47
67842;BME280;54642;59.126;37.876;2022-07-05T00:06:02;99913.28;;;24.16;63.29
67842;BME280;54642;59.126;37.876;2022-07-05T00:08:28;99873.44;;;23.90;63.62
67842;BME280;54642;59.126;37.876;2022-07-05T00:10:54;99907.44;;;24.11;63.19
67842;BME280;54642;59.126;37.876;2022-07-05T00:13:20;99883.09;;;23.91;63.29
67842;BME280;54642;59.126;37.876;2022-07-05T00:15:46;99900.06;;;24.02;63.36
67842;BME280;54642;59.126;37.876;2022-07-05T00:18:12;99913.78;;;24.08;63.39
67842;BME280;54642;59.126;37.876;2022-07-05T00:20:38;99907.19;;;24.01;63.62
67842;BME280;54642;59.126;37.876;2022-07-05T00:23:04;99898.75;;;23.94;63.90
67842;BME280;54642;59.126;37.876;2022-07-05T00:25:30;99860.81;;;23.81;63.73
67842;BME280;54642;59.126;37.876;2022-07-05T00:27:56;99906.13;;;24.04;64.03
67842;BME280;54642;59.126;37.876;2022-07-05T00:30:22;99910.66;;;24.02;63.90
67842;BME280;54642;59.126;37.876;2022-07-05T00:32:47;99908.50;;;23.94;64.14
67842;BME280;54642;59.126;37.876;2022-07-05T00:35:14;99874.69;;;23.70;64.20
67842;BME280;54642;59.126;37.876;2022-07-05T00:37:39;99885.56;;;23.80;64.92
67842;BME280;54642;59.126;37.876;2022-07-05T00:40:06;99902.38;;;23.93;64.65
67842;BME280;54642;59.126;37.876;2022-07-05T00:42:33;99890.06;;;23.92;64.77
67842;BME280;54642;59.126;37.876;2022-07-05T00:44:59;99883.47;;;23.85;64.83
67842;BME280;54642;59.126;37.876;2022-07-05T00:47:25;99896.63;;;23.87;64.64
67842;BME280;54642;59.126;37.876;2022-07-05T00:49:51;99882.31;;;23.75;64.87
67842;BME280;54642;59.126;37.876;2022-07-05T00:52:17;99897.84;;;23.81;65.43
67842;BME280;54642;59.126;37.876;2022-07-05T00:54:44;99898.50;;;23.85;65.02
67842;BME280;54642;59.126;37.876;2022-07-05T00:57:10;99872.41;;;23.64;65.28
67842;BME280;54642;59.126;37.876;2022-07-05T00:59:36;99900.75;;;23.76;65.71
67842;BME280;54642;59.126;37.876;2022-07-05T01:02:02;99897.53;;;23.71;65.60
67842;BME280;54642;59.126;37.876;2022-07-05T01:04:28;99895.84;;;23.70;65.96
67842;BME280;54642;59.126;37.876;2022-07-05T01:06:55;99903.28;;;23.78;65.83
67842;BME280;54642;59.126;37.876;2022-07-05T01:09:22;99867.59;;;23.56;66.57
67842;BME280;54642;59.126;37.876;2022-07-05T01:11:49;99828.88;;;23.41;66.68
67842;BME280;54642;59.126;37.876;2022-07-05T01:14:17;99885.19;;;23.86;66.52
67842;BME280;54642;59.126;37.876;2022-07-05T01:16:44;99893.88;;;23.88;66.42
67842;BME280;54642;59.126;37.876;2022-07-05T01:19:11;99888.59;;;23.88;66.42
67842;BME280;54642;59.126;37.876;2022-07-05T01:21:42;99886.69;;;23.90;66.69
67842;BME280;54642;59.126;37.876;2022-07-05T01:24:11;99829.91;;;23.53;67.00
67842;BME280;54642;59.126;37.876;2022-07-05T01:26:38;99865.69;;;23.73;66.90
67842;BME280;54642;59.126;37.876;2022-07-05T01:29:05;99868.34;;;23.73;67.33
67842;BME280;54642;59.126;37.876;2022-07-05T01:31:32;99830.97;;;23.50;67.05
67842;BME280;54642;59.126;37.876;2022-07-05T01:33:58;99873.84;;;23.70;67.20
67842;BME280;54642;59.126;37.876;2022-07-05T01:36:24;99892.06;;;23.74;67.56
67842;BME280;54642;59.126;37.876;2022-07-05T01:38:50;99855.69;;;23.49;67.16
67842;BME280;54642;59.126;37.876;2022-07-05T01:41:16;99875.44;;;23.58;67.37
67842;BME280;54642;59.126;37.876;2022-07-05T01:43:43;99849.00;;;23.44;67.59
67842;BME280;54642;59.126;37.876;2022-07-05T01:46:09;99895.94;;;23.69;67.80
67842;BME280;54642;59.126;37.876;2022-07-05T01:48:41;99898.59;;;23.69;67.51
67842;BME280;54642;59.126;37.876;2022-07-05T01:51:20;99901.31;;;23.67;67.44
67842;BME280;54642;59.126;37.876;2022-07-05T01:53:50;99897.94;;;23.65;67.96
67842;BME280;54642;59.126;37.876;2022-07-05T01:56:17;99895.56;;;23.60;68.03
67842;BME280;54642;59.126;37.876;2022-07-05T01:58:44;99861.75;;;23.37;67.93
67842;BME280;54642;59.126;37.876;2022-07-05T02:01:10;99860.81;;;23.38;67.78
67842;BME280;54642;59.126;37.876;2022-07-05T02:03:37;99850.69;;;23.30;67.98
67842;BME280;54642;59.126;37.876;2022-07-05T02:06:04;99868.84;;;23.36;68.23
67842;BME280;54642;59.126;37.876;2022-07-05T02:08:32;99892.53;;;23.52;67.97
67842;BME280;54642;59.126;37.876;2022-07-05T02:10:57;99892.47;;;23.54;68.09
67842;BME280;54642;59.126;37.876;2022-07-05T02:13:23;99901.06;;;23.57;68.08
67842;BME280;54642;59.126;37.876;2022-07-05T02:15:50;99891.78;;;23.50;68.54
67842;BME280;54642;59.126;37.876;2022-07-05T02:18:16;99849.09;;;23.28;68.38
67842;BME280;54642;59.126;37.876;2022-07-05T02:20:43;99888.75;;;23.56;68.36
67842;BME280;54642;59.126;37.876;2022-07-05T02:23:10;99866.47;;;23.46;68.65
67842;BME280;54642;59.126;37.876;2022-07-05T02:25:38;99899.34;;;23.71;68.32
67842;BME280;54642;59.126;37.876;2022-07-05T02:28:09;99869.59;;;23.53;68.59
67842;BME280;54642;59.126;37.876;2022-07-05T02:30:37;99901.78;;;23.74;68.62
67842;BME280;54642;59.126;37.876;2022-07-05T02:33:03;99893.84;;;23.74;68.86
67842;BME280;54642;59.126;37.876;2022-07-05T02:35:29;99866.28;;;23.64;68.78
67842;BME280;54642;59.126;37.876;2022-07-05T02:37:56;99894.91;;;23.86;69.02
67842;BME280;54642;59.126;37.876;2022-07-05T02:40:22;99885.56;;;23.80;68.99
67842;BME280;54642;59.126;37.876;2022-07-05T02:42:50;99888.38;;;23.77;68.80
67842;BME280;54642;59.126;37.876;2022-07-05T02:45:17;99892.44;;;23.68;68.87
67842;BME280;54642;59.126;37.876;2022-07-05T02:47:46;99863.38;;;23.54;69.51
67842;BME280;54642;59.126;37.876;2022-07-05T02:50:13;99906.13;;;23.75;69.59
67842;BME280;54642;59.126;37.876;2022-07-05T02:52:46;99909.38;;;23.80;69.60
67842;BME280;54642;59.126;37.876;2022-07-05T02:55:14;99898.59;;;23.83;69.92
67842;BME280;54642;59.126;37.876;2022-07-05T02:57:40;99879.66;;;23.75;69.61
67842;BME280;54642;59.126;37.876;2022-07-05T03:00:09;99913.34;;;23.87;69.97
67842;BME280;54642;59.126;37.876;2022-07-05T03:02:42;99863.03;;;23.73;69.70
67842;BME280;54642;59.126;37.876;2022-07-05T03:05:09;99907.09;;;24.03;70.18
67842;BME280;54642;59.126;37.876;2022-07-05T03:07:37;99913.41;;;24.00;70.11
67842;BME280;54642;59.126;37.876;2022-07-05T03:10:04;99908.41;;;24.10;69.85
67842;BME280;54642;59.126;37.876;2022-07-05T03:12:31;99875.34;;;23.88;70.00
67842;BME280;54642;59.126;37.876;2022-07-05T03:14:57;99874.75;;;23.97;69.80
67842;BME280;54642;59.126;37.876;2022-07-05T03:17:23;99918.03;;;24.11;70.15
67842;BME280;54642;59.126;37.876;2022-07-05T03:19:50;99911.78;;;24.12;70.13
67842;BME280;54642;59.126;37.876;2022-07-05T03:22:19;99906.50;;;24.12;69.97
67842;BME280;54642;59.126;37.876;2022-07-05T03:24:45;99906.97;;;24.19;70.28
67842;BME280;54642;59.126;37.876;2022-07-05T03:27:11;99847.91;;;23.89;69.79
67842;BME280;54642;59.126;37.876;2022-07-05T03:29:39;99904.22;;;24.20;70.00
67842;BME280;54642;59.126;37.876;2022-07-05T03:32:05;99864.53;;;24.06;69.87
67842;BME280;54642;59.126;37.876;2022-07-05T03:34:31;99903.06;;;24.24;69.79
67842;BME280;54642;59.126;37.876;2022-07-05T03:37:00;99834.16;;;23.84;70.14
67842;BME280;54642;59.126;37.876;2022-07-05T03:39:26;99867.84;;;24.09;69.80
67842;BME280;54642;59.126;37.876;2022-07-05T03:41:52;99782.13;;;23.56;69.76
67842;BME280;54642;59.126;37.876;2022-07-05T03:44:21;99890.28;;;24.31;69.93
67842;BME280;54642;59.126;37.876;2022-07-05T03:46:47;99873.94;;;24.24;70.15
67842;BME280;54642;59.126;37.876;2022-07-05T03:49:13;99900.22;;;24.27;69.95
67842;BME280;54642;59.126;37.876;2022-07-05T03:51:40;99907.66;;;24.35;69.80
67842;BME280;54642;59.126;37.876;2022-07-05T03:54:06;99860.84;;;24.08;70.18
67842;BME280;54642;59.126;37.876;2022-07-05T03:56:32;99861.75;;;24.22;70.40
67842;BME280;54642;59.126;37.876;2022-07-05T03:59:02;99840.13;;;24.15;69.82
67842;BME280;54642;59.126;37.876;2022-07-05T04:01:30;99901.38;;;24.50;69.68
67842;BME280;54642;59.126;37.876;2022-07-05T04:03:56;99881.31;;;24.46;70.02
67842;BME280;54642;59.126;37.876;2022-07-05T04:06:24;99891.69;;;24.64;69.25
67842;BME280;54642;59.126;37.876;2022-07-05T04:08:52;99851.53;;;24.43;68.77
67842;BME280;54642;59.126;37.876;2022-07-05T04:11:18;99886.19;;;24.67;68.51
67842;BME280;54642;59.126;37.876;2022-07-05T04:13:48;99894.47;;;24.75;68.03
67842;BME280;54642;59.126;37.876;2022-07-05T04:16:14;99898.19;;;24.72;67.46
67842;BME280;54642;59.126;37.876;2022-07-05T04:18:39;99889.06;;;24.77;67.35
67842;BME280;54642;59.126;37.876;2022-07-05T04:21:06;99896.81;;;24.80;67.17
67842;BME280;54642;59.126;37.876;2022-07-05T04:23:32;99903.31;;;24.88;66.53
67842;BME280;54642;59.126;37.876;2022-07-05T04:26:02;99897.69;;;24.93;66.20
67842;BME280;54642;59.126;37.876;2022-07-05T04:28:33;99905.25;;;24.99;65.72
67842;BME280;54642;59.126;37.876;2022-07-05T04:31:03;99888.59;;;24.97;65.81
67842;BME280;54642;59.126;37.876;2022-07-05T04:33:32;99901.41;;;25.03;65.63
67842;BME280;54642;59.126;37.876;2022-07-05T04:35:59;99907.25;;;25.08;65.88
67842;BME280;54642;59.126;37.876;2022-07-05T04:38:28;99898.13;;;25.12;65.66
67842;BME280;54642;59.126;37.876;2022-07-05T04:40:57;99897.75;;;25.19;65.47
67842;BME280;54642;59.126;37.876;2022-07-05T04:43:25;99893.28;;;25.19;65.53
67842;BME280;54642;59.126;37.876;2022-07-05T04:45:51;99788.22;;;24.52;65.26
67842;BME280;54642;59.126;37.876;2022-07-05T04:48:19;99861.66;;;25.03;64.49
67842;BME280;54642;59.126;37.876;2022-07-05T04:50:45;99896.06;;;25.30;65.10
67842;BME280;54642;59.126;37.876;2022-07-05T04:53:11;99899.88;;;25.39;64.54
67842;BME280;54642;59.126;37.876;2022-07-05T04:55:37;99864.53;;;25.13;63.69
67842;BME280;54642;59.126;37.876;2022-07-05T04:58:03;99899.56;;;25.44;63.54
67842;BME280;54642;59.126;37.876;2022-07-05T05:00:29;99897.56;;;25.47;62.93
67842;BME280;54642;59.126;37.876;2022-07-05T05:02:58;99892.34;;;25.46;62.65
67842;BME280;54642;59.126;37.876;2022-07-05T05:05:23;99898.81;;;25.55;63.05
67842;BME280;54642;59.126;37.876;2022-07-05T05:07:49;99891.81;;;25.54;62.42
67842;BME280;54642;59.126;37.876;2022-07-05T05:10:15;99904.13;;;25.67;62.73
67842;BME280;54642;59.126;37.876;2022-07-05T05:12:42;99903.28;;;25.67;62.21
67842;BME280;54642;59.126;37.876;2022-07-05T05:15:08;99898.34;;;25.74;62.35
67842;BME280;54642;59.126;37.876;2022-07-05T05:17:37;99840.38;;;25.43;62.32
67842;BME280;54642;59.126;37.876;2022-07-05T05:20:15;99901.22;;;25.83;61.97
67842;BME280;54642;59.126;37.876;2022-07-05T05:22:41;99892.81;;;25.90;62.18
67842;BME280;54642;59.126;37.876;2022-07-05T05:25:08;99885.81;;;25.88;61.95
67842;BME280;54642;59.126;37.876;2022-07-05T05:27:34;99866.09;;;25.80;61.50
67842;BME280;54642;59.126;37.876;2022-07-05T05:30:00;99894.09;;;25.97;61.83
67842;BME280;54642;59.126;37.876;2022-07-05T05:32:27;99890.50;;;25.98;61.53
67842;BME280;54642;59.126;37.876;2022-07-05T05:34:53;99883.16;;;26.01;61.28
67842;BME280;54642;59.126;37.876;2022-07-05T05:37:18;99854.59;;;25.92;60.86
67842;BME280;54642;59.126;37.876;2022-07-05T05:39:44;99887.69;;;26.12;61.32
67842;BME280;54642;59.126;37.876;2022-07-05T05:42:10;99885.66;;;26.16;60.81
67842;BME280;54642;59.126;37.876;2022-07-05T05:44:36;99827.31;;;25.90;60.53
67842;BME280;54642;59.126;37.876;2022-07-05T05:47:03;99886.34;;;26.31;60.78
67842;BME280;54642;59.126;37.876;2022-07-05T05:49:29;99887.56;;;26.38;60.79
67842;BME280;54642;59.126;37.876;2022-07-05T05:51:55;99888.97;;;26.43;60.22
67842;BME280;54642;59.126;37.876;2022-07-05T05:54:21;99889.13;;;26.53;60.38
67842;BME280;54642;59.126;37.876;2022-07-05T05:56:47;99891.94;;;26.63;59.97
67842;BME280;54642;59.126;37.876;2022-07-05T05:59:15;99886.06;;;26.71;59.80
67842;BME280;54642;59.126;37.876;2022-07-05T06:01:41;99878.09;;;26.71;59.39
67842;BME280;54642;59.126;37.876;2022-07-05T06:04:07;99876.91;;;26.75;59.61
67842;BME280;54642;59.126;37.876;2022-07-05T06:06:33;99858.47;;;26.60;59.03
67842;BME280;54642;59.126;37.876;2022-07-05T06:09:01;99886.94;;;26.82;59.26
67842;BME280;54642;59.126;37.876;2022-07-05T06:11:27;99888.31;;;26.88;58.95
67842;BME280;54642;59.126;37.876;2022-07-05T06:13:53;99882.25;;;26.86;59.00
67842;BME280;54642;59.126;37.876;2022-07-05T06:16:20;99854.91;;;26.73;58.58
67842;BME280;54642;59.126;37.876;2022-07-05T06:18:45;99851.28;;;26.74;58.80
67842;BME280;54642;59.126;37.876;2022-07-05T06:21:11;99884.69;;;27.00;58.75
67842;BME280;54642;59.126;37.876;2022-07-05T06:23:37;99843.34;;;26.85;58.37
67842;BME280;54642;59.126;37.876;2022-07-05T06:26:03;99884.75;;;27.12;57.33
67842;BME280;54642;59.126;37.876;2022-07-05T06:28:29;99875.06;;;27.22;57.54
67842;BME280;54642;59.126;37.876;2022-07-05T06:30:57;99872.19;;;27.25;57.57
67842;BME280;54642;59.126;37.876;2022-07-05T06:33:23;99875.50;;;27.40;57.03
67842;BME280;54642;59.126;37.876;2022-07-05T06:35:49;99873.31;;;27.45;56.80
67842;BME280;54642;59.126;37.876;2022-07-05T06:38:18;99859.28;;;27.43;57.07
67842;BME280;54642;59.126;37.876;2022-07-05T06:40:44;99863.03;;;27.52;57.21
67842;BME280;54642;59.126;37.876;2022-07-05T06:43:12;99858.69;;;27.62;56.79
67842;BME280;54642;59.126;37.876;2022-07-05T06:45:54;99863.97;;;27.73;56.03
67842;BME280;54642;59.126;37.876;2022-07-05T06:48:21;99843.66;;;27.61;55.53
67842;BME280;54642;59.126;37.876;2022-07-05T06:50:47;99860.97;;;27.78;55.81
67842;BME280;54642;59.126;37.876;2022-07-05T06:53:13;99859.03;;;27.91;55.76
67842;BME280;54642;59.126;37.876;2022-07-05T06:55:39;99859.50;;;27.97;55.09
67842;BME280;54642;59.126;37.876;2022-07-05T06:58:10;99850.56;;;27.98;54.83
67842;BME280;54642;59.126;37.876;2022-07-05T07:00:38;99855.72;;;28.10;54.55
67842;BME280;54642;59.126;37.876;2022-07-05T07:03:04;99830.22;;;27.97;54.45
67842;BME280;54642;59.126;37.876;2022-07-05T07:05:29;99816.19;;;27.94;54.39
67842;BME280;54642;59.126;37.876;2022-07-05T07:07:56;99858.00;;;28.15;53.92
67842;BME280;54642;59.126;37.876;2022-07-05T07:10:40;99857.16;;;28.14;53.49
67842;BME280;54642;59.126;37.876;2022-07-05T07:13:06;99840.69;;;28.21;53.05
67842;BME280;54642;59.126;37.876;2022-07-05T07:15:32;99827.97;;;28.24;52.25
67842;BME280;54642;59.126;37.876;2022-07-05T07:17:59;99849.44;;;28.44;52.61
67842;BME280;54642;59.126;37.876;2022-07-05T07:20:25;99836.50;;;28.39;52.65
67842;BME280;54642;59.126;37.876;2022-07-05T07:22:52;99846.63;;;28.45;52.05
67842;BME280;54642;59.126;37.876;2022-07-05T07:25:18;99849.41;;;28.55;51.83
67842;BME280;54642;59.126;37.876;2022-07-05T07:27:47;99806.34;;;28.39;51.48
67842;BME280;54642;59.126;37.876;2022-07-05T07:30:17;99842.47;;;28.64;51.23
67842;BME280;54642;59.126;37.876;2022-07-05T07:32:44;99847.72;;;28.75;51.57
67842;BME280;54642;59.126;37.876;2022-07-05T07:35:11;99839.16;;;28.71;51.22
67842;BME280;54642;59.126;37.876;2022-07-05T07:37:37;99858.53;;;28.74;50.54
67842;BME280;54642;59.126;37.876;2022-07-05T07:40:04;99825.22;;;28.68;50.36
67842;BME280;54642;59.126;37.876;2022-07-05T07:42:30;99842.78;;;28.92;50.39
67842;BME280;54642;59.126;37.876;2022-07-05T07:44:56;99784.59;;;28.55;50.09
67842;BME280;54642;59.126;37.876;2022-07-05T07:47:22;99840.56;;;28.97;49.95
67842;BME280;54642;59.126;37.876;2022-07-05T07:49:48;99840.69;;;28.95;50.72
67842;BME280;54642;59.126;37.876;2022-07-05T07:52:14;99820.34;;;28.94;50.35
67842;BME280;54642;59.126;37.876;2022-07-05T07:54:41;99835.44;;;29.05;50.35
67842;BME280;54642;59.126;37.876;2022-07-05T07:57:07;99853.31;;;29.14;50.12
67842;BME280;54642;59.126;37.876;2022-07-05T07:59:33;99831.25;;;29.12;50.54
67842;BME280;54642;59.126;37.876;2022-07-05T08:02:00;99835.56;;;29.24;50.76
67842;BME280;54642;59.126;37.876;2022-07-05T08:04:26;99826.06;;;29.32;50.32
67842;BME280;54642;59.126;37.876;2022-07-05T08:06:52;99827.03;;;29.40;50.19
67842;BME280;54642;59.126;37.876;2022-07-05T08:09:18;99816.41;;;29.50;50.27
67842;BME280;54642;59.126;37.876;2022-07-05T08:11:45;99795.00;;;29.40;50.31
67842;BME280;54642;59.126;37.876;2022-07-05T08:14:13;99797.84;;;29.49;50.03
67842;BME280;54642;59.126;37.876;2022-07-05T08:16:38;99805.75;;;29.50;49.93
67842;BME280;54642;59.126;37.876;2022-07-05T08:19:04;99807.53;;;29.40;49.75
67842;BME280;54642;59.126;37.876;2022-07-05T08:21:49;99796.69;;;29.32;50.82
67842;BME280;54642;59.126;37.876;2022-07-05T08:24:15;99789.78;;;29.29;50.91
67842;BME280;54642;59.126;37.876;2022-07-05T08:26:41;99796.41;;;29.35;51.17
67842;BME280;54642;59.126;37.876;2022-07-05T08:29:09;99751.16;;;29.23;50.83
67842;BME280;54642;59.126;37.876;2022-07-05T08:31:41;99784.31;;;29.31;51.03
67842;BME280;54642;59.126;37.876;2022-07-05T08:34:07;99789.06;;;29.27;50.91
67842;BME280;54642;59.126;37.876;2022-07-05T08:36:33;99762.38;;;29.17;50.60
67842;BME280;54642;59.126;37.876;2022-07-05T08:38:59;99778.59;;;29.45;51.00
67842;BME280;54642;59.126;37.876;2022-07-05T08:41:25;99784.78;;;29.45;50.97
67842;BME280;54642;59.126;37.876;2022-07-05T08:43:52;99768.75;;;29.36;51.01
67842;BME280;54642;59.126;37.876;2022-07-05T08:46:18;99784.13;;;29.63;51.73
67842;BME280;54642;59.126;37.876;2022-07-05T08:48:48;99750.94;;;29.56;50.72
67842;BME280;54642;59.126;37.876;2022-07-05T08:51:16;99776.81;;;29.55;50.66
67842;BME280;54642;59.126;37.876;2022-07-05T08:53:43;99785.56;;;29.26;51.30
67842;BME280;54642;59.126;37.876;2022-07-05T08:56:10;99736.31;;;28.79;51.62
67842;BME280;54642;59.126;37.876;2022-07-05T08:58:37;99758.44;;;28.69;51.86
67842;BME280;54642;59.126;37.876;2022-07-05T09:01:05;99757.78;;;28.56;52.08
67842;BME280;54642;59.126;37.876;2022-07-05T09:03:39;99750.25;;;28.40;51.87
67842;BME280;54642;59.126;37.876;2022-07-05T09:06:10;99736.19;;;28.17;52.09
67842;BME280;54642;59.126;37.876;2022-07-05T09:08:38;99760.78;;;28.09;52.36
67842;BME280;54642;59.126;37.876;2022-07-05T09:11:16;99732.28;;;27.77;52.57
67842;BME280;54642;59.126;37.876;2022-07-05T09:13:47;99763.16;;;27.91;52.76
67842;BME280;54642;59.126;37.876;2022-07-05T09:16:13;99710.25;;;27.54;53.07
67842;BME280;54642;59.126;37.876;2022-07-05T09:18:48;99751.44;;;27.71;53.21
67842;BME280;54642;59.126;37.876;2022-07-05T09:21:22;99724.63;;;27.52;53.80
67842;BME280;54642;59.126;37.876;2022-07-05T09:24:05;99733.38;;;27.43;53.76
67842;BME280;54642;59.126;37.876;2022-07-05T09:26:44;99742.47;;;27.40;53.89
67842;BME280;54642;59.126;37.876;2022-07-05T09:29:13;99704.13;;;26.97;53.92
67842;BME280;54642;59.126;37.876;2022-07-05T09:31:48;99777.03;;;27.29;53.94
67842;BME280;54642;59.126;37.876;2022-07-05T09:34:16;99767.47;;;27.04;53.69
67842;BME280;54642;59.126;37.876;2022-07-05T09:36:58;99809.28;;;27.13;53.92
67842;BME280;54642;59.126;37.876;2022-07-05T09:42:19;99833.16;;;26.43;56.88
67842;BME280;54642;59.126;37.876;2022-07-05T09:44:54;99826.88;;;25.96;58.50
67842;BME280;54642;59.126;37.876;2022-07-05T09:47:22;99857.34;;;25.91;59.34
67842;BME280;54642;59.126;37.876;2022-07-05T09:49:52;99857.81;;;25.72;59.88
67842;BME280;54642;59.126;37.876;2022-07-05T09:55:05;99906.34;;;25.48;61.26
67842;BME280;54642;59.126;37.876;2022-07-05T09:57:32;99896.03;;;25.18;61.38
67842;BME280;54642;59.126;37.876;2022-07-05T10:00:06;99909.88;;;24.83;61.15
67842;BME280;54642;59.126;37.876;2022-07-05T10:02:42;99898.06;;;24.61;60.63
67842;BME280;54642;59.126;37.876;2022-07-05T10:05:12;99847.41;;;24.11;60.70
67842;BME280;54642;59.126;37.876;2022-07-05T10:07:54;99856.28;;;24.10;60.94
67842;BME280;54642;59.126;37.876;2022-07-05T10:10:25;99849.88;;;24.00;61.44
67842;BME280;54642;59.126;37.876;2022-07-05T10:12:55;99858.47;;;24.04;61.46
67842;BME280;54642;59.126;37.876;2022-07-05T10:15:32;99789.28;;;23.68;60.37
67842;BME280;54642;59.126;37.876;2022-07-05T10:18:02;99869.25;;;24.15;59.00
67842;BME280;54642;59.126;37.876;2022-07-05T10:20:36;99825.06;;;23.88;58.42
67842;BME280;54642;59.126;37.876;2022-07-05T10:23:12;99883.13;;;24.19;60.38
67842;BME280;54642;59.126;37.876;2022-07-05T10:25:40;99858.47;;;24.04;60.15
67842;BME280;54642;59.126;37.876;2022-07-05T10:28:07;99894.94;;;24.27;59.79
67842;BME280;54642;59.126;37.876;2022-07-05T10:30:34;99885.19;;;24.28;59.14
67842;BME280;54642;59.126;37.876;2022-07-05T10:33:06;99867.44;;;24.15;58.98
67842;BME280;54642;59.126;37.876;2022-07-05T10:35:32;99849.31;;;24.09;59.28
67842;BME280;54642;59.126;37.876;2022-07-05T10:37:59;99882.63;;;24.26;59.01
67842;BME280;54642;59.126;37.876;2022-07-05T10:40:27;99868.94;;;24.20;59.28
67842;BME280;54642;59.126;37.876;2022-07-05T10:42:59;99900.88;;;24.31;58.93
67842;BME280;54642;59.126;37.876;2022-07-05T10:53:29;99858.72;;;23.72;58.52
67842;BME280;54642;59.126;37.876;2022-07-05T10:56:14;99881.38;;;23.76;58.52
67842;BME280;54642;59.126;37.876;2022-07-05T10:58:44;99894.44;;;23.79;58.59
67842;BME280;54642;59.126;37.876;2022-07-05T11:06:26;99887.16;;;23.54;59.68
67842;BME280;54642;59.126;37.876;2022-07-05T11:11:33;99794.91;;;23.06;59.96
67842;BME280;54642;59.126;37.876;2022-07-05T11:14:03;99874.97;;;23.51;60.37
67842;BME280;54642;59.126;37.876;2022-07-05T11:16:34;99832.28;;;23.29;60.12
67842;BME280;54642;59.126;37.876;2022-07-05T11:19:10;99852.56;;;23.42;60.42
67842;BME280;54642;59.126;37.876;2022-07-05T11:21:39;99806.22;;;23.22;60.36
67842;BME280;54642;59.126;37.876;2022-07-05T11:24:26;99825.38;;;23.40;60.46
67842;BME280;54642;59.126;37.876;2022-07-05T11:26:53;99789.13;;;23.28;60.76
67842;BME280;54642;59.126;37.876;2022-07-05T11:32:18;99829.06;;;23.81;61.67
67842;BME280;54642;59.126;37.876;2022-07-05T11:34:46;99809.75;;;23.79;62.33
67842;BME280;54642;59.126;37.876;2022-07-05T11:39:46;99783.66;;;23.87;61.54
67842;BME280;54642;59.126;37.876;2022-07-05T11:42:21;99819.63;;;24.04;61.50
67842;BME280;54642;59.126;37.876;2022-07-05T11:44:50;99831.97;;;24.18;61.25
67842;BME280;54642;59.126;37.876;2022-07-05T11:47:17;99806.31;;;24.06;60.82
67842;BME280;54642;59.126;37.876;2022-07-05T11:49:56;99792.00;;;24.08;61.42
67842;BME280;54642;59.126;37.876;2022-07-05T11:52:26;99826.56;;;24.47;61.21
67842;BME280;54642;59.126;37.876;2022-07-05T11:54:53;99786.38;;;24.27;60.86
67842;BME280;54642;59.126;37.876;2022-07-05T11:57:19;99806.59;;;24.41;61.19
67842;BME280;54642;59.126;37.876;2022-07-05T11:59:46;99819.63;;;24.59;61.71
67842;BME280;54642;59.126;37.876;2022-07-05T12:02:13;99764.22;;;24.28;61.17
67842;BME280;54642;59.126;37.876;2022-07-05T12:04:39;99782.38;;;24.47;60.57
67842;BME280;54642;59.126;37.876;2022-07-05T12:07:05;99786.56;;;24.64;60.08
67842;BME280;54642;59.126;37.876;2022-07-05T12:09:33;99794.41;;;24.79;59.69
67842;BME280;54642;59.126;37.876;2022-07-05T12:12:21;99791.66;;;24.93;59.74
67842;BME280;54642;59.126;37.876;2022-07-05T12:15:07;99782.34;;;25.13;60.30
67842;BME280;54642;59.126;37.876;2022-07-05T12:17:34;99781.25;;;25.16;59.86
67842;BME280;54642;59.126;37.876;2022-07-05T12:20:00;99777.22;;;25.23;58.58
67842;BME280;54642;59.126;37.876;2022-07-05T12:22:38;99778.91;;;25.49;58.68
67842;BME280;54642;59.126;37.876;2022-07-05T12:25:04;99771.75;;;25.63;58.29
67842;BME280;54642;59.126;37.876;2022-07-05T12:27:32;99719.69;;;25.49;57.42
67842;BME280;54642;59.126;37.876;2022-07-05T12:29:59;99756.84;;;26.10;56.54
67842;BME280;54642;59.126;37.876;2022-07-05T12:32:27;99727.94;;;26.30;55.22
67842;BME280;54642;59.126;37.876;2022-07-05T12:34:56;99739.16;;;26.69;54.71
67842;BME280;54642;59.126;37.876;2022-07-05T12:37:27;99711.59;;;26.81;54.75
67842;BME280;54642;59.126;37.876;2022-07-05T12:43:00;99706.66;;;26.88;53.29
67842;BME280;54642;59.126;37.876;2022-07-05T12:45:26;99724.28;;;27.11;51.77
67842;BME280;54642;59.126;37.876;2022-07-05T12:47:57;99698.78;;;27.09;52.61
67842;BME280;54642;59.126;37.876;2022-07-05T12:50:25;99742.81;;;27.35;52.19
67842;BME280;54642;59.126;37.876;2022-07-05T12:53:04;99697.69;;;27.23;51.48
67842;BME280;54642;59.126;37.876;2022-07-05T12:56:04;99703.63;;;27.26;51.15
67842;BME280;54642;59.126;37.876;2022-07-05T12:58:53;99735.78;;;27.46;50.96
67842;BME280;54642;59.126;37.876;2022-07-05T13:01:35;99738.69;;;27.43;51.12
67842;BME280;54642;59.126;37.876;2022-07-05T13:04:16;99733.22;;;27.22;51.13
67842;BME280;54642;59.126;37.876;2022-07-05T13:06:56;99744.72;;;27.22;51.24
67842;BME280;54642;59.126;37.876;2022-07-05T13:14:45;99712.22;;;26.96;52.26
67842;BME280;54642;59.126;37.876;2022-07-05T13:17:17;99714.28;;;27.04;52.74
67842;BME280;54642;59.126;37.876;2022-07-05T13:19:44;99727.22;;;27.08;52.87
67842;BME280;54642;59.126;37.876;2022-07-05T13:22:11;99724.91;;;27.04;53.17
67842;BME280;54642;59.126;37.876;2022-07-05T13:24:38;99720.31;;;27.06;53.54
67842;BME280;54642;59.126;37.876;2022-07-05T13:27:06;99735.69;;;27.13;53.42
67842;BME280;54642;59.126;37.876;2022-07-05T13:29:32;99725.75;;;27.15;53.33
67842;BME280;54642;59.126;37.876;2022-07-05T13:31:58;99724.88;;;27.15;53.39